createdAt,value
2022-12-29T00:02:18.854Z,12.89
2022-12-29T00:04:48.029Z,13.07
2022-12-29T00:07:15.823Z,13.14
2022-12-29T00:09:43.590Z,12.81
2022-12-29T00:12:11.464Z,13.08
2022-12-29T00:14:56.754Z,13.09
2022-12-29T00:17:24.459Z,13.10
2022-12-29T00:20:11.331Z,13.27
2022-12-29T00:22:55.765Z,12.97
2022-12-29T00:25:41.035Z,13.02
2022-12-29T00:28:28.025Z,13.00
2022-12-29T00:31:13.157Z,13.13
2022-12-29T00:33:58.527Z,13.17
2022-12-29T00:36:30.768Z,12.91
2022-12-29T00:39:20.535Z,12.92
2022-12-29T00:42:07.029Z,12.93
2022-12-29T00:44:35.238Z,13.06
2022-12-29T00:47:05.307Z,12.97
2022-12-29T00:49:32.884Z,12.88
2022-12-29T00:52:04.018Z,12.88
2022-12-29T00:54:33.814Z,13.09
2022-12-29T00:57:02.733Z,13.01
2022-12-29T00:59:30.568Z,13.04
2022-12-29T01:01:59.238Z,13.09
2022-12-29T01:04:28.515Z,13.12
2022-12-29T01:06:56.492Z,13.09
2022-12-29T01:09:43.352Z,13.12
2022-12-29T01:12:11.793Z,12.89
2022-12-29T01:14:39.802Z,12.67
2022-12-29T01:17:07.725Z,12.83
2022-12-29T01:19:35.614Z,12.73
2022-12-29T01:22:03.750Z,12.70
2022-12-29T01:24:32.864Z,12.48
2022-12-29T01:27:00.558Z,12.89
2022-12-29T01:29:28.253Z,12.73
2022-12-29T01:31:56.079Z,12.90
2022-12-29T01:34:23.851Z,12.78
2022-12-29T01:36:51.619Z,12.47
2022-12-29T01:39:19.395Z,12.55
2022-12-29T01:41:48.535Z,12.68
2022-12-29T01:44:52.012Z,12.62
2022-12-29T01:47:27.312Z,12.65
2022-12-29T01:49:57.971Z,12.23
2022-12-29T01:52:28.927Z,12.28
2022-12-29T01:54:58.071Z,12.48
2022-12-29T01:57:30.286Z,12.59
2022-12-29T02:00:04.367Z,12.61
2022-12-29T02:02:33.644Z,12.71
2022-12-29T02:05:04.850Z,12.55
2022-12-29T02:07:33.477Z,12.61
2022-12-29T02:10:03.980Z,12.71
2022-12-29T02:12:33.168Z,12.77
2022-12-29T02:15:03.835Z,12.71
2022-12-29T02:17:46.999Z,12.70
2022-12-29T02:20:46.839Z,12.72
2022-12-29T02:23:39.095Z,12.91
2022-12-29T02:26:31.667Z,12.56
2022-12-29T02:29:37.915Z,12.59
2022-12-29T02:32:13.650Z,12.42
2022-12-29T02:34:52.259Z,12.64
2022-12-29T02:37:25.027Z,12.82
2022-12-29T02:39:59.459Z,12.83
2022-12-29T02:42:36.194Z,12.63
2022-12-29T02:45:08.156Z,12.55
2022-12-29T02:47:43.994Z,12.61
2022-12-29T02:50:19.454Z,12.10
2022-12-29T02:52:53.918Z,12.38
2022-12-29T02:55:20.871Z,12.63
2022-12-29T02:57:48.696Z,12.60
2022-12-29T03:00:18.567Z,12.59
2022-12-29T03:03:15.924Z,12.59
2022-12-29T03:06:00.539Z,12.51
2022-12-29T03:08:36.852Z,12.52
2022-12-29T03:11:07.235Z,12.08
2022-12-29T03:13:58.832Z,12.15
2022-12-29T03:16:34.924Z,12.35
2022-12-29T03:19:10.263Z,12.49
2022-12-29T03:22:01.283Z,12.48
2022-12-29T03:24:32.947Z,12.39
2022-12-29T03:27:03.124Z,12.34
2022-12-29T03:29:35.217Z,12.25
2022-12-29T03:32:05.657Z,12.04
2022-12-29T03:34:36.987Z,12.00
2022-12-29T03:37:09.960Z,12.40
2022-12-29T03:39:38.132Z,12.08
2022-12-29T03:42:12.736Z,12.29
2022-12-29T03:44:42.877Z,12.12
2022-12-29T03:47:13.127Z,12.26
2022-12-29T03:49:42.922Z,11.96
2022-12-29T03:52:10.784Z,11.96
2022-12-29T03:54:38.583Z,11.97
2022-12-29T03:57:06.332Z,12.02
2022-12-29T03:59:34.180Z,12.12
2022-12-29T04:02:02.319Z,11.86
2022-12-29T04:04:30.201Z,12.04
2022-12-29T04:06:59.631Z,12.09
2022-12-29T04:09:27.425Z,12.25
2022-12-29T04:11:55.117Z,12.47
2022-12-29T04:14:22.888Z,11.91
2022-12-29T04:16:50.686Z,12.45
2022-12-29T04:19:18.421Z,12.29
2022-12-29T04:21:46.333Z,12.08
2022-12-29T04:24:15.515Z,11.99
2022-12-29T04:26:43.695Z,12.49
2022-12-29T04:29:11.520Z,12.49
2022-12-29T04:31:39.383Z,12.29
2022-12-29T04:34:07.224Z,12.01
2022-12-29T04:36:35.226Z,11.99
2022-12-29T04:39:03.086Z,11.85
2022-12-29T04:41:32.265Z,11.96
2022-12-29T04:44:00.032Z,11.73
2022-12-29T04:46:27.824Z,11.76
2022-12-29T04:48:55.603Z,11.90
2022-12-29T04:51:23.391Z,12.14
2022-12-29T04:53:51.153Z,11.82
2022-12-29T04:56:18.988Z,11.77
2022-12-29T04:58:48.098Z,11.95
2022-12-29T05:01:16.191Z,12.06
2022-12-29T05:03:44.052Z,12.02
2022-12-29T05:06:12.035Z,11.76
2022-12-29T05:08:39.777Z,12.01
2022-12-29T05:11:07.485Z,11.85
2022-12-29T05:13:35.241Z,11.88
2022-12-29T05:16:04.546Z,11.71
2022-12-29T05:18:32.381Z,11.82
2022-12-29T05:21:00.204Z,11.91
2022-12-29T05:23:28.009Z,11.79
2022-12-29T05:25:55.787Z,11.60
2022-12-29T05:28:23.672Z,11.74
2022-12-29T05:30:51.940Z,11.62
2022-12-29T05:33:21.307Z,11.56
2022-12-29T05:35:49.325Z,11.64
2022-12-29T05:38:17.353Z,11.77
2022-12-29T05:40:46.372Z,11.55
2022-12-29T05:43:14.187Z,11.68
2022-12-29T05:45:42.406Z,11.59
2022-12-29T05:48:10.219Z,11.40
2022-12-29T05:50:39.316Z,11.70
2022-12-29T05:53:07.315Z,11.51
2022-12-29T05:55:35.916Z,11.52
2022-12-29T05:58:03.674Z,11.48
2022-12-29T06:00:31.489Z,11.57
2022-12-29T06:02:59.531Z,11.46
2022-12-29T06:05:27.618Z,11.65
2022-12-29T06:07:56.724Z,11.81
2022-12-29T06:10:24.755Z,11.67
2022-12-29T06:12:52.466Z,11.58
2022-12-29T06:15:20.479Z,11.82
2022-12-29T06:17:48.344Z,11.88
2022-12-29T06:20:16.138Z,11.71
2022-12-29T06:22:45.004Z,11.75
2022-12-29T06:25:14.244Z,11.47
2022-12-29T06:27:42.039Z,11.51
2022-12-29T06:30:11.391Z,11.56
2022-12-29T06:32:39.457Z,11.53
2022-12-29T06:35:07.857Z,11.45
2022-12-29T06:37:35.710Z,11.34
2022-12-29T06:40:03.737Z,11.52
2022-12-29T06:42:32.859Z,11.30
2022-12-29T06:45:01.601Z,11.32
2022-12-29T06:47:29.438Z,11.26
2022-12-29T06:49:57.180Z,11.13
2022-12-29T06:52:25.711Z,11.15
2022-12-29T06:54:53.453Z,11.26
2022-12-29T06:57:21.231Z,10.95
2022-12-29T06:59:50.377Z,11.33
2022-12-29T07:02:19.376Z,11.33
2022-12-29T07:04:47.411Z,11.45
2022-12-29T07:07:15.143Z,11.58
2022-12-29T07:09:42.832Z,11.67
2022-12-29T07:12:10.607Z,11.36
2022-12-29T07:14:42.879Z,11.55
2022-12-29T07:17:12.875Z,11.40
2022-12-29T07:19:40.677Z,11.47
2022-12-29T07:22:08.490Z,11.38
2022-12-29T07:24:36.280Z,11.51
2022-12-29T07:27:04.056Z,11.23
2022-12-29T07:29:31.839Z,11.37
2022-12-29T07:31:59.804Z,11.29
2022-12-29T07:34:29.005Z,11.16
2022-12-29T07:36:56.865Z,11.37
2022-12-29T07:39:24.589Z,11.29
2022-12-29T07:41:52.377Z,11.29
2022-12-29T07:44:20.228Z,11.20
2022-12-29T07:46:53.976Z,11.00
2022-12-29T07:49:24.567Z,10.73
2022-12-29T07:51:53.760Z,10.82
2022-12-29T07:54:21.541Z,10.93
2022-12-29T07:56:49.297Z,10.76
2022-12-29T07:59:17.230Z,10.81
2022-12-29T08:01:45.189Z,10.86
2022-12-29T08:04:13.102Z,11.00
2022-12-29T08:06:41.073Z,10.44
2022-12-29T08:09:16.425Z,10.94
2022-12-29T08:11:45.994Z,11.10
2022-12-29T08:14:15.078Z,10.76
2022-12-29T08:16:42.845Z,10.71
2022-12-29T08:19:12.553Z,10.81
2022-12-29T08:21:40.694Z,11.14
2022-12-29T08:24:10.376Z,11.17
2022-12-29T08:26:38.254Z,11.45
2022-12-29T08:29:06.011Z,11.35
2022-12-29T08:31:33.794Z,11.51
2022-12-29T08:34:04.195Z,11.22
2022-12-29T08:36:32.318Z,11.02
2022-12-29T08:39:00.246Z,11.18
2022-12-29T08:41:29.461Z,11.16
2022-12-29T08:43:57.215Z,11.38
2022-12-29T08:46:25.065Z,11.17
2022-12-29T08:48:52.824Z,10.94
2022-12-29T08:51:24.758Z,11.45
2022-12-29T08:53:53.269Z,11.35
2022-12-29T08:56:21.058Z,11.16
2022-12-29T08:58:50.145Z,11.34
2022-12-29T09:01:18.307Z,11.40
2022-12-29T09:04:13.561Z,11.27
2022-12-29T09:06:39.910Z,11.51
2022-12-29T09:09:08.135Z,11.74
2022-12-29T09:11:35.920Z,11.68
2022-12-29T09:14:05.305Z,11.24
2022-12-29T09:16:33.396Z,11.40
2022-12-29T09:19:01.815Z,11.41
2022-12-29T09:21:29.585Z,11.19
2022-12-29T09:23:57.777Z,11.32
2022-12-29T09:26:25.595Z,11.44
2022-12-29T09:28:53.330Z,11.47
2022-12-29T09:31:23.179Z,11.08
2022-12-29T09:33:51.173Z,11.31
2022-12-29T09:36:18.943Z,11.20
2022-12-29T09:38:46.718Z,11.11
2022-12-29T09:41:22.006Z,11.52
2022-12-29T09:44:01.508Z,11.88
2022-12-29T09:46:34.154Z,11.28
2022-12-29T09:49:13.835Z,11.59
2022-12-29T09:51:45.641Z,11.52
2022-12-29T09:54:26.648Z,11.91
2022-12-29T09:56:55.066Z,11.71
2022-12-29T09:59:26.740Z,12.07
2022-12-29T10:02:02.117Z,12.13
2022-12-29T10:04:30.943Z,11.96
2022-12-29T10:07:28.710Z,12.09
2022-12-29T10:10:03.640Z,12.17
2022-12-29T10:12:42.476Z,12.67
2022-12-29T10:15:20.179Z,12.49
2022-12-29T10:17:56.795Z,12.52
2022-12-29T10:20:33.592Z,12.29
2022-12-29T10:23:21.931Z,12.24
2022-12-29T10:25:50.575Z,12.53
2022-12-29T10:28:22.940Z,12.00
2022-12-29T10:30:53.576Z,12.33
2022-12-29T10:33:27.846Z,12.34
2022-12-29T10:35:55.787Z,12.66
2022-12-29T10:38:31.008Z,12.61
2022-12-29T10:41:04.296Z,12.74
2022-12-29T10:43:36.461Z,13.07
2022-12-29T10:46:07.126Z,12.91
2022-12-29T10:48:37.401Z,12.48
2022-12-29T10:51:09.929Z,12.69
2022-12-29T10:53:42.250Z,13.13
2022-12-29T10:56:18.795Z,12.82
2022-12-29T10:58:50.469Z,12.90
2022-12-29T11:01:21.463Z,12.65
2022-12-29T11:04:06.058Z,12.65
2022-12-29T11:06:34.931Z,13.05
2022-12-29T11:09:12.047Z,13.09
2022-12-29T11:11:40.012Z,13.04
2022-12-29T11:14:15.134Z,13.22
2022-12-29T11:16:45.125Z,13.08
2022-12-29T11:19:25.565Z,13.34
2022-12-29T11:21:53.800Z,13.16
2022-12-29T11:24:25.168Z,12.95
2022-12-29T11:26:58.340Z,13.01
2022-12-29T11:29:28.228Z,13.43
2022-12-29T11:31:58.581Z,13.34
2022-12-29T11:34:33.690Z,13.72
2022-12-29T11:37:04.419Z,13.68
2022-12-29T11:39:37.033Z,12.99
2022-12-29T11:42:05.703Z,12.71
2022-12-29T11:44:39.543Z,13.00
2022-12-29T11:47:10.824Z,12.72
2022-12-29T11:49:40.839Z,13.16
2022-12-29T11:52:09.816Z,13.19
2022-12-29T11:54:40.197Z,13.51
2022-12-29T11:57:15.473Z,13.44
2022-12-29T11:59:45.393Z,13.10
2022-12-29T12:02:44.491Z,13.61
2022-12-29T12:05:21.423Z,13.52
2022-12-29T12:07:54.289Z,13.71
2022-12-29T12:10:27.108Z,14.13
2022-12-29T12:13:04.148Z,13.70
2022-12-29T12:15:43.458Z,13.79
2022-12-29T12:18:20.818Z,13.35
2022-12-29T12:20:54.142Z,13.05
2022-12-29T12:23:34.883Z,13.69
2022-12-29T12:26:13.546Z,13.76
2022-12-29T12:28:50.450Z,14.01
2022-12-29T12:31:27.811Z,13.76
2022-12-29T12:34:01.159Z,13.74
2022-12-29T12:37:00.501Z,13.77
2022-12-29T12:39:34.046Z,14.14
2022-12-29T12:42:17.279Z,13.85
2022-12-29T12:44:58.555Z,13.92
2022-12-29T12:47:51.006Z,14.08
2022-12-29T12:50:37.467Z,14.04
2022-12-29T12:53:37.693Z,13.93
2022-12-29T12:56:27.056Z,14.38
2022-12-29T12:59:08.960Z,14.91
2022-12-29T13:01:49.185Z,14.30
2022-12-29T13:04:38.120Z,14.32
2022-12-29T13:07:17.592Z,14.11
2022-12-29T13:09:59.689Z,14.73
2022-12-29T13:12:39.352Z,15.39
2022-12-29T13:15:20.306Z,15.37
2022-12-29T13:17:56.282Z,14.69
2022-12-29T13:20:33.551Z,13.83
2022-12-29T13:23:06.011Z,13.86
2022-12-29T13:25:43.429Z,14.14
2022-12-29T13:28:21.583Z,13.87
2022-12-29T13:30:58.165Z,12.59
2022-12-29T13:33:34.007Z,11.41
2022-12-29T13:36:06.101Z,10.36
2022-12-29T13:38:37.588Z,10.93
2022-12-29T13:41:11.109Z,11.14
2022-12-29T13:43:42.832Z,11.95
2022-12-29T13:46:14.973Z,12.37
2022-12-29T13:48:47.976Z,12.52
2022-12-29T13:51:19.210Z,12.65
2022-12-29T13:54:06.043Z,12.13
2022-12-29T13:56:40.793Z,12.64
2022-12-29T13:59:19.361Z,12.96
2022-12-29T14:01:56.096Z,12.81
2022-12-29T14:04:26.221Z,12.84
2022-12-29T14:07:03.379Z,13.27
2022-12-29T14:09:44.089Z,13.04
2022-12-29T14:12:26.429Z,12.89
2022-12-29T14:14:54.420Z,12.51
2022-12-29T14:17:23.414Z,12.36
2022-12-29T14:19:56.114Z,12.92
2022-12-29T14:22:33.021Z,13.08
2022-12-29T14:25:01.690Z,12.78
2022-12-29T14:28:17.005Z,13.13
2022-12-29T14:30:55.542Z,13.01
2022-12-29T14:33:28.784Z,13.39
2022-12-29T14:35:57.209Z,13.10
2022-12-29T14:38:30.960Z,13.38
2022-12-29T14:41:29.779Z,13.47
2022-12-29T14:44:03.500Z,13.58
2022-12-29T14:46:57.673Z,13.44
2022-12-29T14:49:27.648Z,13.83
2022-12-29T14:52:06.229Z,13.75
2022-12-29T14:54:53.129Z,13.41
2022-12-29T14:57:41.762Z,13.44
2022-12-29T15:00:20.372Z,13.04
2022-12-29T15:02:54.255Z,13.22
2022-12-29T15:05:33.881Z,13.10
2022-12-29T15:08:03.327Z,12.94
2022-12-29T15:10:39.261Z,12.93
2022-12-29T15:13:16.885Z,12.39
2022-12-29T15:15:46.094Z,12.60
2022-12-29T15:18:25.008Z,12.35
2022-12-29T15:20:55.330Z,12.54
2022-12-29T15:23:23.457Z,12.67
2022-12-29T15:25:55.950Z,12.88
2022-12-29T15:28:24.520Z,12.41
2022-12-29T15:30:55.987Z,12.92
2022-12-29T15:33:25.907Z,12.45
2022-12-29T15:35:55.153Z,12.71
2022-12-29T15:38:32.195Z,12.81
2022-12-29T15:41:07.297Z,12.82
2022-12-29T15:43:48.014Z,12.51
2022-12-29T15:46:17.936Z,12.91
2022-12-29T15:48:46.078Z,12.81
2022-12-29T15:51:22.119Z,12.75
2022-12-29T15:53:52.383Z,12.54
2022-12-29T15:56:20.484Z,12.71
2022-12-29T15:58:51.332Z,12.66
2022-12-29T16:01:25.914Z,12.65
2022-12-29T16:03:55.304Z,12.67
2022-12-29T16:06:30.084Z,12.73
2022-12-29T16:08:59.734Z,12.54
2022-12-29T16:11:31.825Z,12.67
2022-12-29T16:14:00.203Z,12.56
2022-12-29T16:16:32.673Z,12.22
2022-12-29T16:19:00.766Z,12.12
2022-12-29T16:21:33.952Z,12.20
2022-12-29T16:24:05.134Z,12.00
2022-12-29T16:26:33.143Z,11.87
2022-12-29T16:29:04.003Z,12.12
2022-12-29T16:31:51.654Z,11.94
2022-12-29T16:34:26.316Z,11.69
2022-12-29T16:36:56.758Z,11.52
2022-12-29T16:39:36.788Z,11.88
2022-12-29T16:42:38.445Z,11.85
2022-12-29T16:45:58.316Z,11.80
2022-12-29T16:48:29.713Z,11.84
2022-12-29T16:51:05.020Z,11.62
2022-12-29T16:53:37.682Z,11.93
2022-12-29T16:56:10.860Z,11.62
2022-12-29T16:58:40.327Z,11.92
2022-12-29T17:01:15.558Z,12.01
2022-12-29T17:03:49.963Z,11.91
2022-12-29T17:06:18.491Z,12.03
2022-12-29T17:08:47.251Z,11.97
2022-12-29T17:11:41.237Z,11.90
2022-12-29T17:14:26.815Z,11.55
2022-12-29T17:16:54.767Z,11.51
2022-12-29T17:19:31.414Z,11.60
2022-12-29T17:21:59.669Z,11.56
2022-12-29T17:24:27.806Z,11.48
2022-12-29T17:26:58.179Z,11.47
2022-12-29T17:29:33.102Z,11.34
2022-12-29T17:32:02.061Z,11.38
2022-12-29T17:34:31.255Z,11.37
2022-12-29T17:36:59.033Z,11.44
2022-12-29T17:39:26.762Z,11.50
2022-12-29T17:41:54.570Z,11.43
2022-12-29T17:44:24.385Z,11.43
2022-12-29T17:46:52.409Z,11.43
2022-12-29T17:49:20.255Z,11.41
2022-12-29T17:51:49.358Z,11.53
2022-12-29T17:54:22.775Z,11.34
2022-12-29T17:56:50.360Z,11.16
2022-12-29T17:59:19.116Z,11.44
2022-12-29T18:01:48.525Z,11.55
2022-12-29T18:04:18.207Z,11.32
2022-12-29T18:06:46.994Z,11.45
2022-12-29T18:09:18.230Z,11.22
2022-12-29T18:11:46.598Z,11.26
2022-12-29T18:14:14.929Z,11.30
2022-12-29T18:16:43.109Z,11.29
2022-12-29T18:19:11.089Z,11.22
2022-12-29T18:21:40.720Z,11.20
2022-12-29T18:24:14.781Z,11.04
2022-12-29T18:26:43.937Z,10.91
2022-12-29T18:29:11.699Z,10.84
2022-12-29T18:31:39.684Z,10.90
2022-12-29T18:34:14.788Z,11.20
2022-12-29T18:36:42.553Z,11.16
2022-12-29T18:39:10.279Z,11.16
2022-12-29T18:41:38.013Z,10.99
2022-12-29T18:44:12.798Z,11.12
2022-12-29T18:46:41.020Z,11.10
2022-12-29T18:49:08.909Z,10.91
2022-12-29T18:51:36.708Z,11.04
2022-12-29T18:54:04.702Z,11.07
2022-12-29T18:56:32.586Z,10.86
2022-12-29T18:59:00.348Z,11.10
2022-12-29T19:01:31.037Z,11.04
2022-12-29T19:03:58.895Z,10.98
2022-12-29T19:06:26.722Z,11.15
2022-12-29T19:08:54.432Z,10.84
2022-12-29T19:11:22.479Z,10.99
2022-12-29T19:13:50.219Z,11.03
2022-12-29T19:16:21.318Z,11.12
2022-12-29T19:19:07.836Z,11.12
2022-12-29T19:21:37.482Z,11.13
2022-12-29T19:24:05.439Z,11.12
2022-12-29T19:26:36.401Z,10.86
2022-12-29T19:29:06.033Z,10.84
2022-12-29T19:31:34.196Z,10.78
2022-12-29T19:34:04.040Z,10.89
2022-12-29T19:36:33.147Z,10.77
2022-12-29T19:39:01.077Z,10.83
2022-12-29T19:41:28.854Z,10.77
2022-12-29T19:43:57.123Z,10.90
2022-12-29T19:46:25.423Z,10.93
2022-12-29T19:48:53.307Z,10.98
2022-12-29T19:51:22.382Z,10.96
2022-12-29T19:53:50.162Z,10.92
2022-12-29T19:56:18.517Z,10.87
2022-12-29T19:58:47.672Z,10.81
2022-12-29T20:01:20.969Z,10.82
2022-12-29T20:03:50.026Z,10.63
2022-12-29T20:06:18.414Z,10.59
2022-12-29T20:08:47.602Z,10.64
2022-12-29T20:11:17.945Z,10.58
2022-12-29T20:13:46.914Z,10.53
2022-12-29T20:16:17.920Z,10.34
2022-12-29T20:18:46.127Z,10.40
2022-12-29T20:21:16.415Z,10.32
2022-12-29T20:23:45.911Z,10.24
2022-12-29T20:26:21.133Z,10.39
2022-12-29T20:28:49.168Z,10.43
2022-12-29T20:31:20.021Z,10.18
2022-12-29T20:33:48.382Z,10.06
2022-12-29T20:36:19.078Z,10.01
2022-12-29T20:38:47.651Z,10.00
2022-12-29T20:41:16.517Z,9.97
2022-12-29T20:43:46.402Z,9.97
2022-12-29T20:46:20.551Z,9.79
2022-12-29T20:48:49.386Z,9.82
2022-12-29T20:51:17.227Z,9.73
2022-12-29T20:53:45.088Z,9.82
2022-12-29T20:56:16.232Z,9.74
2022-12-29T20:59:25.814Z,9.66
2022-12-29T21:01:34.224Z,9.68
2022-12-29T21:04:02.084Z,9.58
2022-12-29T21:06:30.007Z,9.73
2022-12-29T21:08:57.775Z,9.75
2022-12-29T21:11:25.560Z,9.83
2022-12-29T21:13:59.279Z,9.86
2022-12-29T21:16:29.123Z,9.79
2022-12-29T21:18:57.037Z,9.61
2022-12-29T21:21:26.849Z,9.68
2022-12-29T21:23:54.994Z,9.55
2022-12-29T21:26:24.871Z,9.43
2022-12-29T21:28:54.640Z,9.40
2022-12-29T21:31:28.084Z,9.28
2022-12-29T21:33:56.110Z,9.40
2022-12-29T21:36:24.482Z,9.32
2022-12-29T21:38:52.311Z,9.29
2022-12-29T21:41:20.415Z,9.35
2022-12-29T21:44:09.746Z,9.30
2022-12-29T21:46:40.134Z,9.22
2022-12-29T21:49:09.142Z,9.19
2022-12-29T21:51:53.991Z,9.14
2022-12-29T21:54:42.157Z,9.10
2022-12-29T21:57:11.515Z,9.06
2022-12-29T21:59:58.559Z,9.16
2022-12-29T22:02:46.409Z,9.13
2022-12-29T22:05:33.993Z,9.23
2022-12-29T22:08:21.835Z,9.09
2022-12-29T22:11:07.808Z,9.08
2022-12-29T22:13:37.289Z,9.22
2022-12-29T22:16:05.808Z,9.16
2022-12-29T22:18:35.476Z,9.13
2022-12-29T22:21:05.482Z,9.21
2022-12-29T22:23:33.428Z,9.09
2022-12-29T22:26:04.643Z,9.21
2022-12-29T22:28:32.844Z,9.11
2022-12-29T22:31:01.243Z,9.16
2022-12-29T22:33:29.083Z,9.11
2022-12-29T22:35:58.288Z,9.22
2022-12-29T22:38:26.087Z,9.26
2022-12-29T22:40:59.448Z,9.33
2022-12-29T22:43:29.896Z,9.32
2022-12-29T22:46:05.129Z,9.49
2022-12-29T22:48:33.302Z,9.37
2022-12-29T22:51:02.982Z,9.34
2022-12-29T22:53:31.118Z,9.56
2022-12-29T22:56:07.063Z,9.56
2022-12-29T22:58:35.464Z,9.49
2022-12-29T23:01:05.483Z,9.39
2022-12-29T23:03:33.305Z,9.44
2022-12-29T23:06:05.424Z,9.40
2022-12-29T23:08:35.667Z,9.35
2022-12-29T23:11:04.436Z,9.31
2022-12-29T23:13:32.884Z,9.14
2022-12-29T23:16:00.953Z,9.17
2022-12-29T23:18:28.902Z,8.94
2022-12-29T23:20:56.934Z,9.16
2022-12-29T23:23:48.147Z,9.14
2022-12-29T23:26:16.826Z,9.07
2022-12-29T23:28:45.437Z,9.16
2022-12-29T23:31:13.738Z,9.19
2022-12-29T23:33:42.019Z,9.18
2022-12-29T23:36:10.433Z,9.14
2022-12-29T23:38:39.656Z,9.14
2022-12-29T23:41:07.513Z,9.19
2022-12-29T23:43:36.088Z,9.01
2022-12-29T23:46:08.631Z,9.07
2022-12-29T23:48:36.658Z,9.13
2022-12-29T23:51:06.852Z,9.20
2022-12-29T23:53:35.168Z,9.22
2022-12-29T23:56:05.155Z,9.18
2022-12-29T23:58:33.760Z,9.24
